createdAt,value
2018-05-15T18:04:03.921Z,101270.52
2018-05-15T18:09:05.003Z,101270.38
2018-05-15T18:14:06.009Z,101270.53
2018-05-15T18:19:07.030Z,101273.52
2018-05-15T18:24:08.065Z,101270.56
2018-05-15T18:29:09.081Z,101264.13
2018-05-15T18:34:10.098Z,101258.63
2018-05-15T18:39:11.137Z,101260.80
2018-05-15T18:44:12.155Z,101263.80
2018-05-15T18:49:13.197Z,101262.95
2018-05-15T18:54:14.201Z,101269.40
2018-05-15T18:59:15.225Z,101280.11
2018-05-15T19:04:16.215Z,101278.39
2018-05-15T19:09:17.274Z,101286.50
2018-05-15T19:14:18.290Z,101291.60
2018-05-15T19:19:19.416Z,101296.71
2018-05-15T19:24:20.401Z,101300.15
2018-05-15T19:29:21.442Z,101301.73
2018-05-15T19:34:22.467Z,101310.75
2018-05-15T19:39:29.679Z,101315.83
2018-05-15T19:44:30.724Z,101307.75
2018-05-15T19:49:31.768Z,101314.59
2018-05-15T19:54:32.812Z,101314.91
2018-05-15T19:59:33.849Z,101314.03
2018-05-15T20:04:34.864Z,101315.72
2018-05-15T20:09:35.917Z,101327.70
2018-05-15T20:14:36.963Z,101315.24
2018-05-15T20:19:38.015Z,101322.08
2018-05-15T20:24:39.093Z,101326.17
2018-05-15T20:29:40.116Z,101335.14
2018-05-15T20:34:41.145Z,101348.80
2018-05-15T20:39:42.132Z,101341.45
2018-05-15T20:44:43.146Z,101351.64
2018-05-15T20:49:44.171Z,101346.05
2018-05-15T20:54:52.107Z,101350.71
2018-05-15T20:59:53.165Z,101343.39
2018-05-15T21:04:54.167Z,101351.42
2018-05-15T21:09:55.235Z,101346.72
2018-05-15T21:14:56.246Z,101349.70
2018-05-15T21:19:57.296Z,101349.58
2018-05-15T21:24:58.280Z,101355.58
2018-05-15T21:29:59.281Z,101343.45
2018-05-15T21:35:00.264Z,101349.05
2018-05-15T21:40:01.241Z,101351.19
2018-05-15T21:45:02.665Z,101350.12
2018-05-15T21:50:03.934Z,101341.66
2018-05-15T21:55:04.930Z,101342.42
2018-05-15T22:00:05.943Z,101348.30
2018-05-15T22:05:06.961Z,101345.23
2018-05-15T22:10:07.995Z,101335.45
2018-05-15T22:15:21.440Z,101330.37
2018-05-15T22:20:34.675Z,101331.75
2018-05-15T22:25:35.641Z,101329.51
2018-05-15T22:30:36.728Z,101325.61
2018-05-15T22:35:37.721Z,101327.28
2018-05-15T22:40:38.729Z,101327.35
2018-05-15T22:45:40.189Z,101325.23
2018-05-15T22:50:41.172Z,101321.34
2018-05-15T22:55:42.154Z,101328.03
2018-05-15T23:00:43.133Z,101326.34
2018-05-15T23:05:44.134Z,101328.94
2018-05-15T23:10:45.147Z,101330.59
2018-05-15T23:15:46.145Z,101334.34
2018-05-15T23:20:47.102Z,101333.48
2018-05-15T23:25:48.091Z,101330.07
2018-05-15T23:30:49.097Z,101323.60
2018-05-15T23:35:50.103Z,101319.34
2018-05-15T23:40:51.085Z,101319.04
2018-05-15T23:45:52.036Z,101310.88
2018-05-15T23:50:53.011Z,101298.63
2018-05-15T23:55:53.995Z,101307.12
